sensor_id;sensor_type;location;lat;lon;timestamp;temperature;humidity
6792;DHT22;3433;48.730;9.108;2023-03-23T00:00:55;14.80;82.30
6792;DHT22;3433;48.730;9.108;2023-03-23T00:03:42;14.80;82.20
6792;DHT22;3433;48.730;9.108;2023-03-23T00:06:30;14.80;82.90
6792;DHT22;3433;48.730;9.108;2023-03-23T00:09:18;14.80;82.30
6792;DHT22;3433;48.730;9.108;2023-03-23T00:12:09;14.80;82.50
6792;DHT22;3433;48.730;9.108;2023-03-23T00:15:01;14.80;83.10
6792;DHT22;3433;48.730;9.108;2023-03-23T00:17:49;14.80;82.40
6792;DHT22;3433;48.730;9.108;2023-03-23T00:20:36;14.90;82.60
6792;DHT22;3433;48.730;9.108;2023-03-23T00:23:27;14.90;82.80
6792;DHT22;3433;48.730;9.108;2023-03-23T00:26:14;14.90;82.50
6792;DHT22;3433;48.730;9.108;2023-03-23T00:29:02;14.90;82.60
6792;DHT22;3433;48.730;9.108;2023-03-23T00:31:50;14.90;82.60
6792;DHT22;3433;48.730;9.108;2023-03-23T00:34:38;14.90;82.50
6792;DHT22;3433;48.730;9.108;2023-03-23T00:37:26;15.00;82.80
6792;DHT22;3433;48.730;9.108;2023-03-23T00:40:15;15.00;82.40
6792;DHT22;3433;48.730;9.108;2023-03-23T00:43:03;14.90;82.40
6792;DHT22;3433;48.730;9.108;2023-03-23T00:45:51;14.90;82.40
6792;DHT22;3433;48.730;9.108;2023-03-23T00:48:39;14.90;82.30
6792;DHT22;3433;48.730;9.108;2023-03-23T00:51:30;15.00;82.50
6792;DHT22;3433;48.730;9.108;2023-03-23T00:54:18;14.90;82.30
6792;DHT22;3433;48.730;9.108;2023-03-23T00:57:06;14.90;82.20
6792;DHT22;3433;48.730;9.108;2023-03-23T00:59:55;14.80;82.00
6792;DHT22;3433;48.730;9.108;2023-03-23T01:02:42;14.80;82.10
6792;DHT22;3433;48.730;9.108;2023-03-23T01:05:33;14.80;82.80
6792;DHT22;3433;48.730;9.108;2023-03-23T01:08:21;14.80;82.00
6792;DHT22;3433;48.730;9.108;2023-03-23T01:11:09;14.80;82.10
6792;DHT22;3433;48.730;9.108;2023-03-23T01:13:58;14.70;82.10
6792;DHT22;3433;48.730;9.108;2023-03-23T01:16:46;14.70;82.00
6792;DHT22;3433;48.730;9.108;2023-03-23T01:19:33;14.70;82.20
6792;DHT22;3433;48.730;9.108;2023-03-23T01:22:20;14.60;82.10
6792;DHT22;3433;48.730;9.108;2023-03-23T01:25:09;14.70;82.10
6792;DHT22;3433;48.730;9.108;2023-03-23T01:27:57;14.70;82.00
6792;DHT22;3433;48.730;9.108;2023-03-23T01:30:46;14.60;82.00
6792;DHT22;3433;48.730;9.108;2023-03-23T01:33:34;14.60;82.00
6792;DHT22;3433;48.730;9.108;2023-03-23T01:36:22;14.50;82.00
6792;DHT22;3433;48.730;9.108;2023-03-23T01:39:11;14.60;82.10
6792;DHT22;3433;48.730;9.108;2023-03-23T01:41:58;14.50;82.10
6792;DHT22;3433;48.730;9.108;2023-03-23T01:45:29;14.50;82.20
6792;DHT22;3433;48.730;9.108;2023-03-23T01:48:22;14.50;82.20
6792;DHT22;3433;48.730;9.108;2023-03-23T01:51:13;14.50;82.10
6792;DHT22;3433;48.730;9.108;2023-03-23T01:54:03;14.40;82.10
6792;DHT22;3433;48.730;9.108;2023-03-23T01:56:54;14.40;82.20
6792;DHT22;3433;48.730;9.108;2023-03-23T01:59:44;14.40;82.20
6792;DHT22;3433;48.730;9.108;2023-03-23T02:02:32;14.40;82.20
6792;DHT22;3433;48.730;9.108;2023-03-23T02:05:26;14.30;82.60
6792;DHT22;3433;48.730;9.108;2023-03-23T02:08:16;14.30;82.20
6792;DHT22;3433;48.730;9.108;2023-03-23T02:11:12;14.40;82.30
6792;DHT22;3433;48.730;9.108;2023-03-23T02:14:00;14.40;82.30
6792;DHT22;3433;48.730;9.108;2023-03-23T02:16:52;14.40;82.40
6792;DHT22;3433;48.730;9.108;2023-03-23T02:19:59;14.40;82.50
6792;DHT22;3433;48.730;9.108;2023-03-23T02:23:26;14.40;82.50
6792;DHT22;3433;48.730;9.108;2023-03-23T02:26:41;14.40;82.80
6792;DHT22;3433;48.730;9.108;2023-03-23T02:30:04;14.30;83.50
6792;DHT22;3433;48.730;9.108;2023-03-23T02:36:21;14.40;82.80
6792;DHT22;3433;48.730;9.108;2023-03-23T02:39:13;14.50;82.80
6792;DHT22;3433;48.730;9.108;2023-03-23T02:42:05;14.50;83.30
6792;DHT22;3433;48.730;9.108;2023-03-23T02:44:54;14.50;83.50
6792;DHT22;3433;48.730;9.108;2023-03-23T02:47:43;14.50;83.60
6792;DHT22;3433;48.730;9.108;2023-03-23T02:50:32;14.50;83.70
6792;DHT22;3433;48.730;9.108;2023-03-23T02:53:23;14.50;83.50
6792;DHT22;3433;48.730;9.108;2023-03-23T02:56:12;14.50;83.40
6792;DHT22;3433;48.730;9.108;2023-03-23T02:59:01;14.50;83.60
6792;DHT22;3433;48.730;9.108;2023-03-23T03:02:01;14.50;83.50
6792;DHT22;3433;48.730;9.108;2023-03-23T03:04:55;14.50;83.70
6792;DHT22;3433;48.730;9.108;2023-03-23T03:07:54;14.50;83.60
6792;DHT22;3433;48.730;9.108;2023-03-23T03:10:47;14.50;83.60
6792;DHT22;3433;48.730;9.108;2023-03-23T03:13:44;14.50;83.80
6792;DHT22;3433;48.730;9.108;2023-03-23T03:16:35;14.50;84.00
6792;DHT22;3433;48.730;9.108;2023-03-23T03:19:26;14.50;84.60
6792;DHT22;3433;48.730;9.108;2023-03-23T03:22:14;14.50;84.00
6792;DHT22;3433;48.730;9.108;2023-03-23T03:25:05;14.50;83.80
6792;DHT22;3433;48.730;9.108;2023-03-23T03:27:53;14.50;83.90
6792;DHT22;3433;48.730;9.108;2023-03-23T03:30:42;14.50;84.00
6792;DHT22;3433;48.730;9.108;2023-03-23T03:33:30;14.50;83.90
6792;DHT22;3433;48.730;9.108;2023-03-23T03:36:22;14.50;84.20
6792;DHT22;3433;48.730;9.108;2023-03-23T03:39:13;14.50;83.80
6792;DHT22;3433;48.730;9.108;2023-03-23T03:42:05;14.50;84.20
6792;DHT22;3433;48.730;9.108;2023-03-23T03:44:52;14.60;84.00
6792;DHT22;3433;48.730;9.108;2023-03-23T03:47:39;14.50;84.20
6792;DHT22;3433;48.730;9.108;2023-03-23T03:50:27;14.60;84.20
6792;DHT22;3433;48.730;9.108;2023-03-23T03:53:14;14.60;84.30
6792;DHT22;3433;48.730;9.108;2023-03-23T03:56:01;14.60;84.20
6792;DHT22;3433;48.730;9.108;2023-03-23T03:58:52;14.60;84.20
6792;DHT22;3433;48.730;9.108;2023-03-23T04:01:40;14.60;84.30
6792;DHT22;3433;48.730;9.108;2023-03-23T04:04:27;14.60;84.50
6792;DHT22;3433;48.730;9.108;2023-03-23T04:07:15;14.60;84.40
6792;DHT22;3433;48.730;9.108;2023-03-23T04:10:03;14.60;84.50
6792;DHT22;3433;48.730;9.108;2023-03-23T04:12:50;14.60;84.50
6792;DHT22;3433;48.730;9.108;2023-03-23T04:15:39;14.60;84.40
6792;DHT22;3433;48.730;9.108;2023-03-23T04:18:26;14.60;84.50
6792;DHT22;3433;48.730;9.108;2023-03-23T04:21:14;14.60;84.50
6792;DHT22;3433;48.730;9.108;2023-03-23T04:24:02;14.70;84.60
6792;DHT22;3433;48.730;9.108;2023-03-23T04:26:49;14.70;84.50
6792;DHT22;3433;48.730;9.108;2023-03-23T04:29:38;14.70;84.70
6792;DHT22;3433;48.730;9.108;2023-03-23T04:32:27;14.70;85.80
6792;DHT22;3433;48.730;9.108;2023-03-23T04:35:14;14.70;85.20
6792;DHT22;3433;48.730;9.108;2023-03-23T04:38:02;14.70;84.90
6792;DHT22;3433;48.730;9.108;2023-03-23T04:40:50;14.70;85.30
6792;DHT22;3433;48.730;9.108;2023-03-23T04:43:38;14.70;85.30
6792;DHT22;3433;48.730;9.108;2023-03-23T04:46:27;14.70;85.60
6792;DHT22;3433;48.730;9.108;2023-03-23T04:49:17;14.80;85.70
6792;DHT22;3433;48.730;9.108;2023-03-23T04:52:06;14.70;85.70
6792;DHT22;3433;48.730;9.108;2023-03-23T04:54:54;14.70;85.60
6792;DHT22;3433;48.730;9.108;2023-03-23T04:57:41;14.80;85.50
6792;DHT22;3433;48.730;9.108;2023-03-23T05:00:29;14.80;85.60
6792;DHT22;3433;48.730;9.108;2023-03-23T05:03:16;14.80;86.30
6792;DHT22;3433;48.730;9.108;2023-03-23T05:06:06;14.90;85.80
6792;DHT22;3433;48.730;9.108;2023-03-23T05:08:53;14.80;85.80
6792;DHT22;3433;48.730;9.108;2023-03-23T05:11:40;14.90;85.80
6792;DHT22;3433;48.730;9.108;2023-03-23T05:14:27;14.90;85.50
6792;DHT22;3433;48.730;9.108;2023-03-23T05:17:15;14.90;85.40
6792;DHT22;3433;48.730;9.108;2023-03-23T05:20:05;14.90;85.50
6792;DHT22;3433;48.730;9.108;2023-03-23T05:22:56;14.90;85.50
6792;DHT22;3433;48.730;9.108;2023-03-23T05:25:43;14.90;85.60
6792;DHT22;3433;48.730;9.108;2023-03-23T05:28:33;14.90;85.50
6792;DHT22;3433;48.730;9.108;2023-03-23T05:31:22;14.90;85.40
6792;DHT22;3433;48.730;9.108;2023-03-23T05:34:10;15.00;85.60
6792;DHT22;3433;48.730;9.108;2023-03-23T05:36:57;15.00;85.50
6792;DHT22;3433;48.730;9.108;2023-03-23T05:39:46;15.00;85.50
6792;DHT22;3433;48.730;9.108;2023-03-23T05:42:34;15.10;85.40
6792;DHT22;3433;48.730;9.108;2023-03-23T05:45:21;15.00;85.50
6792;DHT22;3433;48.730;9.108;2023-03-23T05:48:09;15.00;86.00
6792;DHT22;3433;48.730;9.108;2023-03-23T05:50:57;15.00;86.10
6792;DHT22;3433;48.730;9.108;2023-03-23T05:53:44;15.10;85.60
6792;DHT22;3433;48.730;9.108;2023-03-23T05:56:32;15.10;85.50
6792;DHT22;3433;48.730;9.108;2023-03-23T06:04:23;15.10;85.50
6792;DHT22;3433;48.730;9.108;2023-03-23T06:07:12;15.10;85.60
6792;DHT22;3433;48.730;9.108;2023-03-23T06:10:00;15.20;85.60
6792;DHT22;3433;48.730;9.108;2023-03-23T06:12:49;15.30;86.40
6792;DHT22;3433;48.730;9.108;2023-03-23T06:15:37;15.20;85.70
6792;DHT22;3433;48.730;9.108;2023-03-23T06:18:24;15.20;86.20
6792;DHT22;3433;48.730;9.108;2023-03-23T06:21:12;15.20;85.70
6792;DHT22;3433;48.730;9.108;2023-03-23T06:23:59;15.30;85.80
6792;DHT22;3433;48.730;9.108;2023-03-23T06:26:47;15.40;86.00
6792;DHT22;3433;48.730;9.108;2023-03-23T06:29:37;15.40;85.90
6792;DHT22;3433;48.730;9.108;2023-03-23T06:32:26;15.40;86.00
6792;DHT22;3433;48.730;9.108;2023-03-23T06:35:15;15.40;86.20
6792;DHT22;3433;48.730;9.108;2023-03-23T06:38:02;15.30;85.80
6792;DHT22;3433;48.730;9.108;2023-03-23T06:40:51;15.40;86.00
6792;DHT22;3433;48.730;9.108;2023-03-23T06:43:39;15.40;86.00
6792;DHT22;3433;48.730;9.108;2023-03-23T06:46:27;15.40;86.00
6792;DHT22;3433;48.730;9.108;2023-03-23T06:49:15;15.40;86.20
6792;DHT22;3433;48.730;9.108;2023-03-23T06:52:02;15.40;86.10
6792;DHT22;3433;48.730;9.108;2023-03-23T06:54:49;15.50;86.10
6792;DHT22;3433;48.730;9.108;2023-03-23T06:57:37;15.50;86.40
6792;DHT22;3433;48.730;9.108;2023-03-23T07:00:24;15.50;86.50
6792;DHT22;3433;48.730;9.108;2023-03-23T07:03:14;15.50;86.50
6792;DHT22;3433;48.730;9.108;2023-03-23T07:06:02;15.60;86.60
6792;DHT22;3433;48.730;9.108;2023-03-23T07:08:49;15.60;86.60
6792;DHT22;3433;48.730;9.108;2023-03-23T07:11:36;15.60;86.40
6792;DHT22;3433;48.730;9.108;2023-03-23T07:14:24;15.70;86.60
6792;DHT22;3433;48.730;9.108;2023-03-23T07:17:12;15.70;86.50
6792;DHT22;3433;48.730;9.108;2023-03-23T07:20:01;15.70;86.40
6792;DHT22;3433;48.730;9.108;2023-03-23T07:22:48;15.60;86.60
6792;DHT22;3433;48.730;9.108;2023-03-23T07:25:36;15.60;86.60
6792;DHT22;3433;48.730;9.108;2023-03-23T07:28:23;15.60;86.70
6792;DHT22;3433;48.730;9.108;2023-03-23T07:31:11;15.70;87.00
6792;DHT22;3433;48.730;9.108;2023-03-23T07:33:58;15.60;86.70
6792;DHT22;3433;48.730;9.108;2023-03-23T07:36:47;15.70;86.90
6792;DHT22;3433;48.730;9.108;2023-03-23T07:39:34;15.60;86.90
6792;DHT22;3433;48.730;9.108;2023-03-23T07:42:21;15.70;87.00
6792;DHT22;3433;48.730;9.108;2023-03-23T07:45:10;15.70;87.00
6792;DHT22;3433;48.730;9.108;2023-03-23T07:47:58;15.70;87.20
6792;DHT22;3433;48.730;9.108;2023-03-23T07:50:45;15.70;87.10
6792;DHT22;3433;48.730;9.108;2023-03-23T07:53:34;15.70;87.60
6792;DHT22;3433;48.730;9.108;2023-03-23T07:56:21;15.80;87.80
6792;DHT22;3433;48.730;9.108;2023-03-23T07:59:08;15.90;87.60
6792;DHT22;3433;48.730;9.108;2023-03-23T08:01:57;16.00;87.90
6792;DHT22;3433;48.730;9.108;2023-03-23T08:04:44;16.00;88.00
6792;DHT22;3433;48.730;9.108;2023-03-23T08:07:33;16.00;88.50
6792;DHT22;3433;48.730;9.108;2023-03-23T08:10:23;16.10;88.70
6792;DHT22;3433;48.730;9.108;2023-03-23T08:13:10;16.10;88.90
6792;DHT22;3433;48.730;9.108;2023-03-23T08:15:57;16.10;89.00
6792;DHT22;3433;48.730;9.108;2023-03-23T08:18:44;16.10;89.10
6792;DHT22;3433;48.730;9.108;2023-03-23T08:21:32;16.20;89.50
6792;DHT22;3433;48.730;9.108;2023-03-23T08:24:20;16.30;89.30
6792;DHT22;3433;48.730;9.108;2023-03-23T08:27:09;16.30;89.40
6792;DHT22;3433;48.730;9.108;2023-03-23T08:29:56;16.40;89.80
6792;DHT22;3433;48.730;9.108;2023-03-23T08:32:44;16.40;89.80
6792;DHT22;3433;48.730;9.108;2023-03-23T08:35:32;16.50;90.20
6792;DHT22;3433;48.730;9.108;2023-03-23T08:38:20;16.50;90.10
6792;DHT22;3433;48.730;9.108;2023-03-23T08:41:08;16.50;90.10
6792;DHT22;3433;48.730;9.108;2023-03-23T08:43:57;16.50;90.30
6792;DHT22;3433;48.730;9.108;2023-03-23T08:46:45;16.50;90.30
6792;DHT22;3433;48.730;9.108;2023-03-23T08:49:32;16.50;90.30
6792;DHT22;3433;48.730;9.108;2023-03-23T08:52:20;16.40;90.60
6792;DHT22;3433;48.730;9.108;2023-03-23T08:55:08;16.50;90.50
6792;DHT22;3433;48.730;9.108;2023-03-23T08:57:55;16.50;90.70
6792;DHT22;3433;48.730;9.108;2023-03-23T09:00:44;16.50;90.70
6792;DHT22;3433;48.730;9.108;2023-03-23T09:03:33;16.40;90.90
6792;DHT22;3433;48.730;9.108;2023-03-23T09:06:21;16.40;90.90
6792;DHT22;3433;48.730;9.108;2023-03-23T09:09:08;16.50;91.10
6792;DHT22;3433;48.730;9.108;2023-03-23T09:11:55;16.50;91.00
6792;DHT22;3433;48.730;9.108;2023-03-23T09:14:42;16.60;91.00
6792;DHT22;3433;48.730;9.108;2023-03-23T09:17:31;16.60;91.20
6792;DHT22;3433;48.730;9.108;2023-03-23T09:20:21;16.60;91.00
6792;DHT22;3433;48.730;9.108;2023-03-23T09:23:08;16.50;91.10
6792;DHT22;3433;48.730;9.108;2023-03-23T09:25:55;16.70;91.40
6792;DHT22;3433;48.730;9.108;2023-03-23T09:28:43;16.80;91.20
6792;DHT22;3433;48.730;9.108;2023-03-23T09:31:31;16.90;91.40
6792;DHT22;3433;48.730;9.108;2023-03-23T09:34:20;16.90;91.30
6792;DHT22;3433;48.730;9.108;2023-03-23T09:37:08;16.90;91.20
6792;DHT22;3433;48.730;9.108;2023-03-23T09:39:55;16.80;91.30
6792;DHT22;3433;48.730;9.108;2023-03-23T09:42:51;16.60;91.20
6792;DHT22;3433;48.730;9.108;2023-03-23T09:45:48;16.60;91.20
6792;DHT22;3433;48.730;9.108;2023-03-23T09:48:45;16.50;91.50
6792;DHT22;3433;48.730;9.108;2023-03-23T09:51:41;16.40;91.50
6792;DHT22;3433;48.730;9.108;2023-03-23T09:54:32;16.50;91.80
6792;DHT22;3433;48.730;9.108;2023-03-23T09:57:24;16.60;91.40
6792;DHT22;3433;48.730;9.108;2023-03-23T10:00:17;16.60;91.60
6792;DHT22;3433;48.730;9.108;2023-03-23T10:03:06;16.50;91.80
6792;DHT22;3433;48.730;9.108;2023-03-23T10:05:55;16.50;91.80
6792;DHT22;3433;48.730;9.108;2023-03-23T10:08:47;16.70;91.90
6792;DHT22;3433;48.730;9.108;2023-03-23T10:11:44;16.80;91.80
6792;DHT22;3433;48.730;9.108;2023-03-23T10:14:45;17.10;91.80
6792;DHT22;3433;48.730;9.108;2023-03-23T10:17:38;17.40;91.80
6792;DHT22;3433;48.730;9.108;2023-03-23T10:20:33;17.60;91.90
6792;DHT22;3433;48.730;9.108;2023-03-23T10:23:39;17.30;91.40
6792;DHT22;3433;48.730;9.108;2023-03-23T10:26:36;17.40;91.40
6792;DHT22;3433;48.730;9.108;2023-03-23T10:29:28;17.30;91.50
6792;DHT22;3433;48.730;9.108;2023-03-23T10:32:18;17.30;91.60
6792;DHT22;3433;48.730;9.108;2023-03-23T10:35:11;17.30;91.70
6792;DHT22;3433;48.730;9.108;2023-03-23T10:38:03;17.10;91.80
6792;DHT22;3433;48.730;9.108;2023-03-23T10:40:55;17.20;92.10
6792;DHT22;3433;48.730;9.108;2023-03-23T10:43:45;17.30;91.90
6792;DHT22;3433;48.730;9.108;2023-03-23T10:46:41;17.50;91.90
6792;DHT22;3433;48.730;9.108;2023-03-23T10:49:39;17.60;91.70
6792;DHT22;3433;48.730;9.108;2023-03-23T10:52:31;17.90;92.10
6792;DHT22;3433;48.730;9.108;2023-03-23T10:55:22;18.10;91.90
6792;DHT22;3433;48.730;9.108;2023-03-23T10:58:11;18.40;91.60
6792;DHT22;3433;48.730;9.108;2023-03-23T11:01:02;18.50;91.70
6792;DHT22;3433;48.730;9.108;2023-03-23T11:03:51;18.70;91.90
6792;DHT22;3433;48.730;9.108;2023-03-23T11:06:38;18.70;91.60
6792;DHT22;3433;48.730;9.108;2023-03-23T11:09:35;18.70;91.40
6792;DHT22;3433;48.730;9.108;2023-03-23T11:12:22;18.60;91.10
6792;DHT22;3433;48.730;9.108;2023-03-23T11:15:26;18.50;91.20
6792;DHT22;3433;48.730;9.108;2023-03-23T11:18:20;18.30;91.10
6792;DHT22;3433;48.730;9.108;2023-03-23T11:21:13;18.10;91.30
6792;DHT22;3433;48.730;9.108;2023-03-23T11:24:02;18.10;91.30
6792;DHT22;3433;48.730;9.108;2023-03-23T11:26:50;18.00;91.90
6792;DHT22;3433;48.730;9.108;2023-03-23T11:29:46;18.10;92.00
6792;DHT22;3433;48.730;9.108;2023-03-23T11:32:34;18.10;92.20
6792;DHT22;3433;48.730;9.108;2023-03-23T11:35:27;17.90;91.80
6792;DHT22;3433;48.730;9.108;2023-03-23T11:38:19;17.90;91.80
6792;DHT22;3433;48.730;9.108;2023-03-23T11:41:10;18.10;91.90
6792;DHT22;3433;48.730;9.108;2023-03-23T11:44:04;18.30;91.80
6792;DHT22;3433;48.730;9.108;2023-03-23T11:47:02;18.30;91.80
6792;DHT22;3433;48.730;9.108;2023-03-23T11:49:55;18.40;91.90
6792;DHT22;3433;48.730;9.108;2023-03-23T11:52:51;18.50;91.70
6792;DHT22;3433;48.730;9.108;2023-03-23T11:55:53;18.60;91.50
6792;DHT22;3433;48.730;9.108;2023-03-23T11:58:42;18.70;91.30
6792;DHT22;3433;48.730;9.108;2023-03-23T12:01:47;18.70;90.70
6792;DHT22;3433;48.730;9.108;2023-03-23T12:04:57;18.70;90.60
6792;DHT22;3433;48.730;9.108;2023-03-23T12:07:55;18.60;90.90
6792;DHT22;3433;48.730;9.108;2023-03-23T12:10:50;18.60;90.80
6792;DHT22;3433;48.730;9.108;2023-03-23T12:13:48;18.70;91.00
6792;DHT22;3433;48.730;9.108;2023-03-23T12:16:57;18.40;90.50
6792;DHT22;3433;48.730;9.108;2023-03-23T12:19:54;18.50;90.70
6792;DHT22;3433;48.730;9.108;2023-03-23T12:22:58;18.60;91.00
6792;DHT22;3433;48.730;9.108;2023-03-23T12:26:07;18.60;90.80
6792;DHT22;3433;48.730;9.108;2023-03-23T12:29:23;18.60;91.00
6792;DHT22;3433;48.730;9.108;2023-03-23T12:32:37;18.50;90.90
6792;DHT22;3433;48.730;9.108;2023-03-23T12:35:34;18.60;91.30
6792;DHT22;3433;48.730;9.108;2023-03-23T12:38:53;18.60;91.10
6792;DHT22;3433;48.730;9.108;2023-03-23T12:41:47;18.60;90.30
6792;DHT22;3433;48.730;9.108;2023-03-23T12:44:41;18.70;90.70
6792;DHT22;3433;48.730;9.108;2023-03-23T12:47:35;18.80;90.20
6792;DHT22;3433;48.730;9.108;2023-03-23T12:50:28;19.00;90.70
6792;DHT22;3433;48.730;9.108;2023-03-23T12:53:20;19.20;90.80
6792;DHT22;3433;48.730;9.108;2023-03-23T12:56:15;19.30;90.80
6792;DHT22;3433;48.730;9.108;2023-03-23T12:59:10;19.20;90.10
6792;DHT22;3433;48.730;9.108;2023-03-23T13:02:04;19.30;90.40
6792;DHT22;3433;48.730;9.108;2023-03-23T13:04:59;19.30;90.70
6792;DHT22;3433;48.730;9.108;2023-03-23T13:07:53;19.30;90.10
6792;DHT22;3433;48.730;9.108;2023-03-23T13:10:45;19.30;90.40
6792;DHT22;3433;48.730;9.108;2023-03-23T13:13:48;19.30;90.40
6792;DHT22;3433;48.730;9.108;2023-03-23T13:16:43;19.10;90.40
6792;DHT22;3433;48.730;9.108;2023-03-23T13:19:44;19.30;90.20
6792;DHT22;3433;48.730;9.108;2023-03-23T13:22:37;19.20;89.60
6792;DHT22;3433;48.730;9.108;2023-03-23T13:25:35;19.10;89.40
6792;DHT22;3433;48.730;9.108;2023-03-23T13:28:27;19.10;90.10
6792;DHT22;3433;48.730;9.108;2023-03-23T13:31:17;19.20;90.00
6792;DHT22;3433;48.730;9.108;2023-03-23T13:34:16;19.10;89.70
6792;DHT22;3433;48.730;9.108;2023-03-23T13:37:05;19.10;89.00
6792;DHT22;3433;48.730;9.108;2023-03-23T13:39:56;19.00;90.00
6792;DHT22;3433;48.730;9.108;2023-03-23T13:42:49;18.90;89.60
6792;DHT22;3433;48.730;9.108;2023-03-23T13:45:42;19.00;89.90
6792;DHT22;3433;48.730;9.108;2023-03-23T13:48:40;19.10;89.50
6792;DHT22;3433;48.730;9.108;2023-03-23T13:51:34;19.10;89.80
6792;DHT22;3433;48.730;9.108;2023-03-23T13:54:29;19.10;89.80
6792;DHT22;3433;48.730;9.108;2023-03-23T13:57:25;19.10;89.90
6792;DHT22;3433;48.730;9.108;2023-03-23T14:00:33;19.10;90.10
6792;DHT22;3433;48.730;9.108;2023-03-23T14:03:25;18.90;89.70
6792;DHT22;3433;48.730;9.108;2023-03-23T14:06:16;18.90;89.90
6792;DHT22;3433;48.730;9.108;2023-03-23T14:09:06;18.90;90.00
6792;DHT22;3433;48.730;9.108;2023-03-23T14:12:01;18.70;87.40
6792;DHT22;3433;48.730;9.108;2023-03-23T14:14:57;18.60;88.70
6792;DHT22;3433;48.730;9.108;2023-03-23T14:17:49;18.50;88.40
6792;DHT22;3433;48.730;9.108;2023-03-23T14:20:37;18.60;88.70
6792;DHT22;3433;48.730;9.108;2023-03-23T14:23:27;18.50;88.40
6792;DHT22;3433;48.730;9.108;2023-03-23T14:26:17;18.50;88.20
6792;DHT22;3433;48.730;9.108;2023-03-23T14:29:06;18.50;88.80
6792;DHT22;3433;48.730;9.108;2023-03-23T14:31:56;18.40;88.00
6792;DHT22;3433;48.730;9.108;2023-03-23T14:34:46;18.40;88.40
6792;DHT22;3433;48.730;9.108;2023-03-23T14:37:34;18.40;88.70
6792;DHT22;3433;48.730;9.108;2023-03-23T14:40:26;18.40;88.60
6792;DHT22;3433;48.730;9.108;2023-03-23T14:43:17;18.30;88.60
6792;DHT22;3433;48.730;9.108;2023-03-23T14:46:07;18.40;88.10
6792;DHT22;3433;48.730;9.108;2023-03-23T14:48:54;18.20;88.00
6792;DHT22;3433;48.730;9.108;2023-03-23T14:51:47;18.10;87.70
6792;DHT22;3433;48.730;9.108;2023-03-23T14:54:35;18.20;87.60
6792;DHT22;3433;48.730;9.108;2023-03-23T14:57:28;18.20;87.40
6792;DHT22;3433;48.730;9.108;2023-03-23T15:00:18;18.30;88.10
6792;DHT22;3433;48.730;9.108;2023-03-23T15:03:11;18.30;88.00
6792;DHT22;3433;48.730;9.108;2023-03-23T15:06:01;18.10;86.00
6792;DHT22;3433;48.730;9.108;2023-03-23T15:08:53;18.00;87.20
6792;DHT22;3433;48.730;9.108;2023-03-23T15:11:41;18.10;86.70
6792;DHT22;3433;48.730;9.108;2023-03-23T15:14:32;18.00;85.90
6792;DHT22;3433;48.730;9.108;2023-03-23T15:17:23;18.00;86.10
6792;DHT22;3433;48.730;9.108;2023-03-23T15:20:21;18.10;85.80
6792;DHT22;3433;48.730;9.108;2023-03-23T15:23:15;18.00;85.80
6792;DHT22;3433;48.730;9.108;2023-03-23T15:26:05;18.10;86.40
6792;DHT22;3433;48.730;9.108;2023-03-23T15:29:11;18.20;86.70
6792;DHT22;3433;48.730;9.108;2023-03-23T15:32:00;18.20;87.00
6792;DHT22;3433;48.730;9.108;2023-03-23T15:34:49;18.20;86.00
6792;DHT22;3433;48.730;9.108;2023-03-23T15:37:42;18.10;85.50
6792;DHT22;3433;48.730;9.108;2023-03-23T15:40:33;17.90;85.00
6792;DHT22;3433;48.730;9.108;2023-03-23T15:43:22;17.90;85.60
6792;DHT22;3433;48.730;9.108;2023-03-23T15:46:20;17.80;86.10
6792;DHT22;3433;48.730;9.108;2023-03-23T15:49:11;17.90;85.90
6792;DHT22;3433;48.730;9.108;2023-03-23T15:51:59;17.70;85.90
6792;DHT22;3433;48.730;9.108;2023-03-23T15:54:47;17.80;86.00
6792;DHT22;3433;48.730;9.108;2023-03-23T15:57:35;17.70;86.20
6792;DHT22;3433;48.730;9.108;2023-03-23T16:00:24;17.60;85.60
6792;DHT22;3433;48.730;9.108;2023-03-23T16:03:17;17.60;86.10
6792;DHT22;3433;48.730;9.108;2023-03-23T16:06:09;17.50;86.70
6792;DHT22;3433;48.730;9.108;2023-03-23T16:08:57;17.40;86.20
6792;DHT22;3433;48.730;9.108;2023-03-23T16:11:45;17.40;86.30
6792;DHT22;3433;48.730;9.108;2023-03-23T16:14:33;17.40;86.40
6792;DHT22;3433;48.730;9.108;2023-03-23T16:17:20;17.30;86.30
6792;DHT22;3433;48.730;9.108;2023-03-23T16:20:12;17.40;86.50
6792;DHT22;3433;48.730;9.108;2023-03-23T16:23:01;17.40;86.60
6792;DHT22;3433;48.730;9.108;2023-03-23T16:25:48;17.30;86.50
6792;DHT22;3433;48.730;9.108;2023-03-23T16:28:36;17.40;86.80
6792;DHT22;3433;48.730;9.108;2023-03-23T16:31:23;17.40;87.00
6792;DHT22;3433;48.730;9.108;2023-03-23T16:34:10;17.30;86.70
6792;DHT22;3433;48.730;9.108;2023-03-23T16:36:57;17.20;86.80
6792;DHT22;3433;48.730;9.108;2023-03-23T16:39:46;17.20;87.00
6792;DHT22;3433;48.730;9.108;2023-03-23T16:42:33;17.20;87.30
6792;DHT22;3433;48.730;9.108;2023-03-23T16:45:21;17.20;87.40
6792;DHT22;3433;48.730;9.108;2023-03-23T16:48:09;17.20;87.90
6792;DHT22;3433;48.730;9.108;2023-03-23T16:50:57;17.20;87.80
6792;DHT22;3433;48.730;9.108;2023-03-23T16:53:44;17.20;87.70
6792;DHT22;3433;48.730;9.108;2023-03-23T16:56:33;17.00;88.00
6792;DHT22;3433;48.730;9.108;2023-03-23T16:59:20;16.90;88.30
6792;DHT22;3433;48.730;9.108;2023-03-23T17:02:09;17.00;88.40
6792;DHT22;3433;48.730;9.108;2023-03-23T17:04:56;17.00;88.40
6792;DHT22;3433;48.730;9.108;2023-03-23T17:07:44;17.00;88.60
6792;DHT22;3433;48.730;9.108;2023-03-23T17:10:32;16.90;88.50
6792;DHT22;3433;48.730;9.108;2023-03-23T17:13:20;16.90;88.80
6792;DHT22;3433;48.730;9.108;2023-03-23T17:16:08;16.90;88.80
6792;DHT22;3433;48.730;9.108;2023-03-23T17:18:55;16.90;89.10
6792;DHT22;3433;48.730;9.108;2023-03-23T17:21:42;17.00;88.80
6792;DHT22;3433;48.730;9.108;2023-03-23T17:24:30;16.90;89.20
6792;DHT22;3433;48.730;9.108;2023-03-23T17:27:18;16.90;89.60
6792;DHT22;3433;48.730;9.108;2023-03-23T17:30:09;16.90;89.40
6792;DHT22;3433;48.730;9.108;2023-03-23T17:32:56;16.80;89.80
6792;DHT22;3433;48.730;9.108;2023-03-23T17:35:44;16.80;89.90
6792;DHT22;3433;48.730;9.108;2023-03-23T17:38:34;16.80;89.60
6792;DHT22;3433;48.730;9.108;2023-03-23T17:41:21;16.80;90.10
6792;DHT22;3433;48.730;9.108;2023-03-23T17:44:08;16.80;90.30
6792;DHT22;3433;48.730;9.108;2023-03-23T17:46:57;16.80;90.00
6792;DHT22;3433;48.730;9.108;2023-03-23T17:49:45;16.70;90.10
6792;DHT22;3433;48.730;9.108;2023-03-23T17:52:32;16.70;90.20
6792;DHT22;3433;48.730;9.108;2023-03-23T17:55:20;16.60;90.30
6792;DHT22;3433;48.730;9.108;2023-03-23T17:58:07;16.60;90.40
6792;DHT22;3433;48.730;9.108;2023-03-23T18:00:55;16.60;90.40
6792;DHT22;3433;48.730;9.108;2023-03-23T18:03:44;16.60;90.30
6792;DHT22;3433;48.730;9.108;2023-03-23T18:06:31;16.50;90.40
6792;DHT22;3433;48.730;9.108;2023-03-23T18:09:18;16.50;90.20
6792;DHT22;3433;48.730;9.108;2023-03-23T18:12:06;16.50;90.60
6792;DHT22;3433;48.730;9.108;2023-03-23T18:14:55;16.50;90.60
6792;DHT22;3433;48.730;9.108;2023-03-23T18:17:43;16.50;90.50
6792;DHT22;3433;48.730;9.108;2023-03-23T18:20:34;16.40;90.50
6792;DHT22;3433;48.730;9.108;2023-03-23T18:23:21;16.50;90.70
6792;DHT22;3433;48.730;9.108;2023-03-23T18:26:12;16.50;90.50
6792;DHT22;3433;48.730;9.108;2023-03-23T18:29:01;16.40;90.80
6792;DHT22;3433;48.730;9.108;2023-03-23T18:31:48;16.40;91.00
6792;DHT22;3433;48.730;9.108;2023-03-23T18:34:35;16.40;90.90
6792;DHT22;3433;48.730;9.108;2023-03-23T18:37:24;16.40;90.90
6792;DHT22;3433;48.730;9.108;2023-03-23T18:40:11;16.30;91.10
6792;DHT22;3433;48.730;9.108;2023-03-23T18:42:59;16.40;91.00